Time;durP1;ratioP1;P1;durP2;ratioP2;P2;SDS_P1;SDS_P2;PMS_P1;PMS_P2;Temp;Humidity;BMP_temperature;BMP_pressure;BME280_temperature;BME280_humidity;BME280_pressure;Samples;Min_cycle;Max_cycle;Signal;HPM_P1;HPM_P2
2023/03/04 00:00:55;;;;;;;24.37;17.60;;;;;;;2.91;74.51;99259.25;4977323;28;102712;-58
2023/03/04 00:03:23;;;;;;;27.70;17.60;;;;;;;2.85;75.25;99265.53;4973648;28;104356;-58
2023/03/04 00:05:53;;;;;;;25.93;16.90;;;;;;;2.87;75.58;99262.84;4971846;28;103239;-58
2023/03/04 00:08:24;;;;;;;27.23;16.87;;;;;;;2.89;75.10;99261.06;4973636;28;102703;-58
2023/03/04 00:10:52;;;;;;;24.93;15.53;;;;;;;2.86;75.37;99264.59;4977100;28;102680;-58
2023/03/04 00:13:21;;;;;;;24.77;15.80;;;;;;;2.86;74.75;99259.38;4975083;28;103007;-58
2023/03/04 00:15:49;;;;;;;21.10;14.57;;;;;;;2.78;75.54;99264.00;4968730;28;104109;-58
2023/03/04 00:18:17;;;;;;;29.80;21.30;;;;;;;2.46;76.01;99258.09;4973315;28;102706;-58
2023/03/04 00:20:45;;;;;;;28.57;18.07;;;;;;;2.56;76.05;99257.75;4973578;28;103892;-58
2023/03/04 00:23:14;;;;;;;29.37;18.53;;;;;;;2.49;76.04;99261.47;4971417;28;102979;-58
2023/03/04 00:25:42;;;;;;;25.37;17.20;;;;;;;2.58;76.67;99263.81;4970751;28;103225;-58
2023/03/04 00:28:10;;;;;;;25.30;16.53;;;;;;;2.63;76.12;99264.50;4974415;28;103759;-58
2023/03/04 00:30:39;;;;;;;24.90;17.33;;;;;;;2.65;75.08;99262.69;4975263;28;104352;-59
2023/03/04 00:33:07;;;;;;;24.93;15.73;;;;;;;2.69;75.06;99266.94;4982750;28;103256;-58
2023/03/04 00:35:35;;;;;;;28.43;18.77;;;;;;;2.61;74.85;99260.25;4968887;28;103242;-59
2023/03/04 00:38:03;;;;;;;25.07;16.73;;;;;;;2.52;74.94;99266.59;4973660;28;102637;-58
2023/03/04 00:40:33;;;;;;;21.97;15.27;;;;;;;2.44;76.13;99262.53;4969629;28;103938;-58
2023/03/04 00:43:01;;;;;;;26.57;18.27;;;;;;;2.18;77.08;99265.91;4967498;28;103242;-58
2023/03/04 00:45:29;;;;;;;33.13;20.73;;;;;;;2.24;76.89;99264.00;4969187;28;103222;-59
2023/03/04 00:47:57;;;;;;;22.60;15.03;;;;;;;2.40;76.91;99272.19;4973290;28;102948;-58
2023/03/04 00:50:25;;;;;;;24.13;15.23;;;;;;;2.46;75.83;99266.78;4974531;28;102695;-58
2023/03/04 00:52:53;;;;;;;25.53;17.40;;;;;;;2.53;75.35;99265.69;4972567;28;103208;-59
2023/03/04 00:55:21;;;;;;;27.60;18.37;;;;;;;2.47;75.68;99263.25;4974020;28;103181;-58
2023/03/04 00:57:50;;;;;;;26.00;16.87;;;;;;;2.52;75.65;99268.34;4964877;28;103023;-59
2023/03/04 01:00:19;;;;;;;26.60;16.37;;;;;;;2.60;74.89;99267.22;4973884;28;104124;-58
2023/03/04 01:02:47;;;;;;;28.53;17.50;;;;;;;2.58;75.06;99271.63;4971967;28;103945;-59
2023/03/04 01:05:15;;;;;;;24.67;16.10;;;;;;;2.55;75.67;99266.50;4967491;28;103308;-58
2023/03/04 01:07:43;;;;;;;23.37;15.50;;;;;;;2.60;75.09;99258.53;4969291;28;102637;-58
2023/03/04 01:10:14;;;;;;;24.40;14.63;;;;;;;2.60;74.57;99261.13;4965240;28;102893;-58
2023/03/04 01:12:45;;;;;;;22.47;14.70;;;;;;;2.58;74.41;99250.75;4966224;28;103241;-59
2023/03/04 01:15:15;;;;;;;27.23;17.80;;;;;;;2.50;74.52;99254.50;4978150;28;104279;-58
2023/03/04 01:17:43;;;;;;;29.80;17.17;;;;;;;2.39;75.55;99244.38;4968764;28;102836;-58
2023/03/04 01:20:12;;;;;;;27.73;17.33;;;;;;;2.21;75.58;99245.81;4972504;28;103937;-58
2023/03/04 01:22:41;;;;;;;25.23;15.40;;;;;;;2.13;76.95;99252.16;4971188;28;104320;-59
2023/03/04 01:25:10;;;;;;;21.70;13.90;;;;;;;2.17;76.44;99243.34;4973649;28;103152;-58
2023/03/04 01:27:38;;;;;;;27.40;18.77;;;;;;;2.15;76.03;99258.19;4973646;28;103756;-58
2023/03/04 01:30:07;;;;;;;26.97;17.73;;;;;;;2.11;76.78;99244.38;4974149;28;103738;-58
2023/03/04 01:32:37;;;;;;;24.17;15.00;;;;;;;2.22;76.44;99246.66;4965510;28;103243;-58
2023/03/04 01:35:06;;;;;;;20.17;13.90;;;;;;;2.26;76.22;99243.06;4960144;28;103475;-58
2023/03/04 01:37:35;;;;;;;21.13;14.33;;;;;;;2.31;75.59;99247.25;4972249;28;102802;-58
2023/03/04 01:40:04;;;;;;;22.73;14.57;;;;;;;2.30;75.28;99244.69;4968703;28;102764;-58
2023/03/04 01:42:34;;;;;;;24.30;15.33;;;;;;;2.32;75.10;99242.88;4965449;28;104089;-58
2023/03/04 01:45:03;;;;;;;21.27;13.67;;;;;;;2.32;75.32;99242.88;4969197;28;104186;-58
2023/03/04 01:47:32;;;;;;;28.23;17.97;;;;;;;2.15;74.96;99245.16;4968313;28;102980;-58
2023/03/04 01:50:07;;;;;;;22.07;14.83;;;;;;;2.21;75.65;99240.59;4974406;28;102761;-57
2023/03/04 01:52:35;;;;;;;27.20;16.03;;;;;;;2.18;75.79;99245.06;4972009;28;103477;-58
2023/03/04 01:55:10;;;;;;;19.37;12.20;;;;;;;2.27;75.50;99239.56;4969551;28;103192;-58
2023/03/04 01:57:39;;;;;;;26.83;19.20;;;;;;;2.10;75.32;99242.69;4970109;28;103456;-58
2023/03/04 02:00:30;;;;;;;21.80;15.27;;;;;;;2.11;76.03;99244.38;4959902;28;102881;-58
2023/03/04 02:03:00;;;;;;;20.73;13.43;;;;;;;2.07;76.95;99242.78;4969102;28;103216;-58
2023/03/04 02:05:33;;;;;;;21.30;13.03;;;;;;;2.13;76.35;99241.75;4966199;28;103722;-58
2023/03/04 02:08:03;;;;;;;21.67;13.77;;;;;;;2.05;76.15;99243.72;4971876;28;102670;-58
2023/03/04 02:10:32;;;;;;;23.13;14.80;;;;;;;2.04;76.94;99239.41;4970157;28;102804;-58
2023/03/04 02:13:01;;;;;;;19.47;12.00;;;;;;;2.08;76.41;99230.56;4964617;28;103394;-58
2023/03/04 02:15:30;;;;;;;20.83;13.97;;;;;;;2.10;75.92;99234.00;4969170;28;103433;-58
2023/03/04 02:17:59;;;;;;;16.70;11.93;;;;;;;2.07;76.30;99237.56;4963740;28;102784;-57
2023/03/04 02:20:42;;;;;;;21.50;14.70;;;;;;;2.03;76.10;99245.50;4974072;28;104387;-58
2023/03/04 02:23:17;;;;;;;21.70;14.17;;;;;;;2.09;76.12;99229.69;4970273;28;103175;-58
2023/03/04 02:25:50;;;;;;;19.63;12.93;;;;;;;2.04;76.54;99231.56;4970514;28;104132;-58
2023/03/04 02:28:20;;;;;;;17.90;12.10;;;;;;;2.02;76.58;99233.38;4977066;28;102726;-58
2023/03/04 02:30:50;;;;;;;19.47;12.53;;;;;;;2.02;76.77;99229.00;4966073;28;102790;-58
2023/03/04 02:33:19;;;;;;;17.20;11.60;;;;;;;2.04;77.00;99228.97;4974083;28;103253;-58
2023/03/04 02:35:47;;;;;;;18.70;12.23;;;;;;;2.08;75.93;99227.97;4973414;28;103376;-57
2023/03/04 02:38:16;;;;;;;18.00;12.23;;;;;;;1.98;76.58;99234.38;4974487;28;102599;-58
2023/03/04 02:40:48;;;;;;;20.23;13.73;;;;;;;1.99;76.66;99236.06;4970688;28;102845;-57
2023/03/04 02:43:16;;;;;;;17.67;12.63;;;;;;;1.98;76.78;99236.97;4974912;28;104939;-57
2023/03/04 02:45:48;;;;;;;22.30;13.93;;;;;;;1.79;77.57;99239.25;4967395;28;103206;-58
2023/03/04 02:48:19;;;;;;;20.33;13.30;;;;;;;2.04;77.00;99234.19;4967380;28;102707;-58
2023/03/04 02:50:50;;;;;;;23.87;15.90;;;;;;;2.13;76.27;99239.13;4976148;28;102849;-58
2023/03/04 02:53:20;;;;;;;20.23;13.40;;;;;;;2.10;76.57;99237.47;4970113;28;104004;-58
2023/03/04 02:55:49;;;;;;;19.93;12.53;;;;;;;1.86;77.05;99247.72;4972261;28;103833;-58
2023/03/04 02:58:19;;;;;;;19.03;12.33;;;;;;;1.84;76.63;99239.13;4975411;28;102769;-58
2023/03/04 03:00:49;;;;;;;19.23;12.33;;;;;;;1.77;76.77;99242.81;4971090;28;103181;-58
2023/03/04 03:03:17;;;;;;;18.83;12.57;;;;;;;1.77;77.05;99244.50;4969929;28;103364;-58
2023/03/04 03:05:45;;;;;;;25.33;15.10;;;;;;;1.66;76.45;99241.34;4976557;28;103256;-58
2023/03/04 03:08:14;;;;;;;20.77;13.77;;;;;;;1.54;78.32;99239.09;4971971;28;102676;-58
2023/03/04 03:10:42;;;;;;;19.20;12.63;;;;;;;1.68;78.53;99238.72;4971743;28;102982;-58
2023/03/04 03:13:11;;;;;;;22.10;14.13;;;;;;;1.68;77.99;99236.09;4965443;28;105639;-58
2023/03/04 03:15:41;;;;;;;22.60;14.93;;;;;;;1.62;77.48;99242.34;4973735;28;103430;-58
2023/03/04 03:18:11;;;;;;;19.23;12.30;;;;;;;1.59;77.98;99236.34;4966033;28;102709;-58
2023/03/04 03:20:42;;;;;;;19.13;13.37;;;;;;;1.49;77.67;99234.88;4971312;28;102690;-58
2023/03/04 03:23:10;;;;;;;22.80;14.27;;;;;;;1.39;78.05;99239.50;4968928;28;103986;-58
2023/03/04 03:25:38;;;;;;;17.07;12.23;;;;;;;1.43;78.24;99235.91;4974659;28;103230;-58
2023/03/04 03:28:06;;;;;;;21.40;14.70;;;;;;;1.40;78.24;99237.75;4976781;28;102651;-58
2023/03/04 03:30:35;;;;;;;21.07;13.77;;;;;;;1.32;78.07;99245.75;4970583;28;102965;-58
2023/03/04 03:33:06;;;;;;;17.67;11.97;;;;;;;1.36;78.41;99236.97;4977002;28;103273;-59
2023/03/04 03:35:36;;;;;;;15.93;11.37;;;;;;;1.38;77.68;99227.38;4978875;28;103355;-58
2023/03/04 03:38:04;;;;;;;22.73;15.00;;;;;;;1.33;78.03;99226.66;4968362;28;102754;-59
2023/03/04 03:40:32;;;;;;;21.63;13.50;;;;;;;1.14;79.20;99235.84;4974461;28;102587;-58
2023/03/04 03:42:59;;;;;;;20.67;13.87;;;;;;;1.07;79.80;99239.47;4973574;28;103241;-58
2023/03/04 03:45:27;;;;;;;24.90;15.53;;;;;;;1.07;79.15;99232.53;4977056;28;103224;-58
2023/03/04 03:47:56;;;;;;;23.37;15.20;;;;;;;1.03;79.52;99238.72;4974628;28;102946;-58
2023/03/04 03:50:24;;;;;;;21.70;14.37;;;;;;;1.12;79.28;99237.66;4974229;28;103848;-58
2023/03/04 03:52:53;;;;;;;22.50;14.40;;;;;;;1.00;79.54;99228.41;4972159;28;104085;-58
2023/03/04 03:55:24;;;;;;;22.07;13.30;;;;;;;0.81;80.34;99242.78;4975996;28;104788;-58
2023/03/04 03:57:54;;;;;;;23.37;15.70;;;;;;;1.06;79.86;99232.59;4973085;28;102670;-58
2023/03/04 04:00:23;;;;;;;22.23;15.07;;;;;;;1.09;79.26;99237.72;4970884;28;103008;-58
2023/03/04 04:02:52;;;;;;;20.83;14.73;;;;;;;1.14;79.24;99243.66;4967738;28;103364;-58
2023/03/04 04:05:20;;;;;;;22.07;14.87;;;;;;;1.22;79.55;99243.44;4968632;28;103617;-58
2023/03/04 04:07:48;;;;;;;23.03;15.10;;;;;;;1.05;79.32;99246.47;4973370;28;102660;-58
2023/03/04 04:10:19;;;;;;;24.93;16.10;;;;;;;0.90;79.98;99241.69;4977699;28;103033;-58
2023/03/04 04:12:47;;;;;;;20.27;12.57;;;;;;;0.81;81.29;99241.91;4971250;28;104154;-58
2023/03/04 04:15:15;;;;;;;23.70;15.80;;;;;;;0.91;80.66;99245.97;4975101;28;103255;-59
2023/03/04 04:17:43;;;;;;;23.10;14.23;;;;;;;0.90;81.06;99241.69;4971758;28;102808;-58
2023/03/04 04:20:12;;;;;;;24.47;13.23;;;;;;;0.90;80.08;99242.50;4975351;28;104077;-58
2023/03/04 04:22:40;;;;;;;22.40;13.50;;;;;;;0.86;80.04;99246.09;4976010;28;104031;-58
2023/03/04 04:25:10;;;;;;;24.73;15.10;;;;;;;0.88;79.96;99248.66;4972900;28;104835;-58
2023/03/04 04:27:40;;;;;;;18.33;11.77;;;;;;;1.14;79.16;99246.25;4969587;28;103902;-58
2023/03/04 04:30:09;;;;;;;21.17;13.50;;;;;;;0.94;79.67;99244.16;4970313;28;102766;-58
2023/03/04 04:32:38;;;;;;;23.50;15.00;;;;;;;1.00;79.54;99243.16;4966353;28;103322;-59
2023/03/04 04:35:09;;;;;;;21.53;12.53;;;;;;;0.90;79.94;99242.50;4971083;28;103202;-58
2023/03/04 04:37:39;;;;;;;21.20;14.20;;;;;;;0.77;79.57;99240.25;4971517;28;102805;-58
2023/03/04 04:40:09;;;;;;;21.53;13.80;;;;;;;0.78;80.40;99253.25;4967404;28;103107;-59
2023/03/04 04:42:37;;;;;;;18.00;12.47;;;;;;;0.76;80.42;99251.56;4983726;28;103257;-57
2023/03/04 04:45:08;;;;;;;18.57;12.47;;;;;;;0.82;80.29;99261.81;4976344;28;103250;-59
2023/03/04 04:47:37;;;;;;;20.03;12.03;;;;;;;0.81;80.04;99253.16;4971196;28;103353;-58
2023/03/04 04:50:06;;;;;;;19.37;12.60;;;;;;;0.85;79.79;99248.72;4974578;28;103874;-58
2023/03/04 04:52:34;;;;;;;20.83;14.07;;;;;;;0.85;79.18;99249.59;4971719;28;103206;-58
2023/03/04 04:55:04;;;;;;;21.63;14.23;;;;;;;0.82;79.45;99246.19;4970631;28;103214;-58
2023/03/04 04:57:33;;;;;;;21.13;12.93;;;;;;;0.72;79.59;99249.94;4971605;28;102626;-58
2023/03/04 05:00:01;;;;;;;21.07;13.80;;;;;;;0.56;80.39;99242.47;4974127;28;103859;-58
2023/03/04 05:02:30;;;;;;;23.87;15.43;;;;;;;0.63;80.79;99247.53;4969032;28;103285;-58
2023/03/04 05:04:58;;;;;;;23.07;14.83;;;;;;;0.43;80.88;99256.66;4971325;28;103245;-58
2023/03/04 05:07:26;;;;;;;25.00;16.07;;;;;;;0.41;82.53;99258.47;4969265;28;102770;-58
2023/03/04 05:09:54;;;;;;;23.10;15.23;;;;;;;0.03;83.54;99265.38;4971487;28;102805;-58
2023/03/04 05:12:22;;;;;;;28.50;15.87;;;;;;;0.04;85.42;99267.06;4968612;28;104132;-58
2023/03/04 05:14:50;;;;;;;23.03;14.03;;;;;;;0.18;84.68;99268.50;4973225;28;103362;-58
2023/03/04 05:17:18;;;;;;;22.73;13.40;;;;;;;0.31;83.29;99275.13;4970434;28;103998;-58
2023/03/04 05:19:48;;;;;;;25.97;16.63;;;;;;;0.35;82.68;99279.38;4971708;28;102868;-58
2023/03/04 05:22:16;;;;;;;23.40;13.33;;;;;;;0.44;81.88;99274.00;4978230;28;103265;-58
2023/03/04 05:24:44;;;;;;;20.80;13.20;;;;;;;0.44;81.65;99274.00;4971679;28;103300;-59
2023/03/04 05:27:12;;;;;;;22.40;13.40;;;;;;;0.38;81.11;99274.13;4969663;28;103316;-58
2023/03/04 05:29:41;;;;;;;22.37;12.80;;;;;;;0.38;81.55;99281.91;4974936;28;105867;-58
2023/03/04 05:32:09;;;;;;;28.87;17.13;;;;;;;0.33;81.24;99275.13;4973022;28;103365;-58
2023/03/04 05:34:37;;;;;;;21.37;13.57;;;;;;;0.05;82.71;99274.84;4973028;28;103075;-59
2023/03/04 05:37:07;;;;;;;17.37;11.90;;;;;;;0.16;83.02;99277.22;4972197;28;102657;-59
2023/03/04 05:39:35;;;;;;;23.50;14.30;;;;;;;0.23;83.03;99287.44;4975465;28;103418;-58
2023/03/04 05:42:03;;;;;;;21.67;14.00;;;;;;;0.30;82.21;99286.44;4972984;28;103334;-59
2023/03/04 05:44:31;;;;;;;27.50;16.87;;;;;;;0.33;81.83;99275.97;4973014;28;103028;-59
2023/03/04 05:46:59;;;;;;;20.77;13.73;;;;;;;0.56;80.63;99273.69;4980374;28;103089;-59
2023/03/04 05:49:26;;;;;;;23.73;13.70;;;;;;;0.57;80.63;99283.22;4975774;28;102723;-59
2023/03/04 05:51:54;;;;;;;27.47;17.07;;;;;;;0.64;80.02;99280.47;4970816;28;104160;-59
2023/03/04 05:54:24;;;;;;;20.93;13.03;;;;;;;0.24;81.14;99285.69;4975271;28;104042;-58
2023/03/04 05:56:52;;;;;;;28.97;17.30;;;;;;;0.10;80.84;99291.19;4977305;28;102662;-59
2023/03/04 05:59:21;;;;;;;20.70;13.03;;;;;;;0.22;81.20;99282.28;4977715;28;102696;-58
2023/03/04 06:01:49;;;;;;;23.07;13.53;;;;;;;0.29;81.17;99291.66;4979278;28;103030;-58
2023/03/04 06:04:17;;;;;;;23.57;14.97;;;;;;;0.27;80.49;99291.69;4976093;28;103246;-59
2023/03/04 06:06:46;;;;;;;25.00;14.43;;;;;;;0.27;80.80;99291.69;4975834;28;104274;-59
2023/03/04 06:09:14;;;;;;;20.87;12.13;;;;;;;0.24;80.86;99291.75;4974144;28;103909;-56
2023/03/04 06:11:43;;;;;;;22.00;14.07;;;;;;;0.21;80.40;99290.97;4976345;28;103252;-59
2023/03/04 06:14:11;;;;;;;24.50;15.03;;;;;;;0.21;81.03;99297.03;4977867;28;103140;-59
2023/03/04 06:16:39;;;;;;;23.60;15.10;;;;;;;0.05;80.98;99295.66;4971836;28;102800;-59
2023/03/04 06:19:07;;;;;;;25.20;16.70;;;;;;;0.10;82.32;99296.41;4977035;28;104242;-59
2023/03/04 06:21:35;;;;;;;29.13;18.13;;;;;;;-0.06;82.79;99297.59;4971383;28;103376;-59
2023/03/04 06:24:03;;;;;;;27.13;16.80;;;;;;;-0.29;84.11;99308.44;4972833;28;103325;-59
2023/03/04 06:26:33;;;;;;;32.83;19.30;;;;;;;-0.25;84.15;99317.88;4971073;28;102690;-59
2023/03/04 06:29:05;;;;;;;25.50;15.57;;;;;;;-0.03;84.62;99311.38;4976761;28;103348;-58
2023/03/04 06:31:33;;;;;;;31.53;17.57;;;;;;;0.23;83.01;99316.03;4973042;28;103294;-58
2023/03/04 06:34:01;;;;;;;30.73;17.63;;;;;;;0.40;82.77;99316.53;4968725;28;103409;-58
2023/03/04 06:36:29;;;;;;;30.00;15.60;;;;;;;0.39;82.28;99322.59;4974264;28;102706;-58
2023/03/04 06:38:57;;;;;;;31.10;19.60;;;;;;;0.31;81.67;99326.28;4975212;28;103575;-58
2023/03/04 06:41:25;;;;;;;24.67;14.87;;;;;;;0.62;82.12;99332.50;4965950;28;103231;-58
2023/03/04 06:43:55;;;;;;;29.03;17.33;;;;;;;0.70;81.30;99324.53;4977079;28;103243;-58
2023/03/04 06:46:25;;;;;;;31.40;18.93;;;;;;;0.71;80.26;99334.03;4975276;28;102676;-58
2023/03/04 06:48:56;;;;;;;28.70;16.67;;;;;;;0.80;80.89;99336.44;4977327;28;103780;-58
2023/03/04 06:51:25;;;;;;;31.53;16.57;;;;;;;0.87;80.67;99336.25;4977692;28;103331;-57
2023/03/04 06:53:53;;;;;;;31.17;19.43;;;;;;;0.62;80.45;99339.47;4978537;28;103163;-56
2023/03/04 06:56:21;;;;;;;25.97;17.30;;;;;;;0.82;82.13;99340.72;4972543;28;102604;-58
2023/03/04 06:58:49;;;;;;;31.80;18.07;;;;;;;0.92;81.73;99343.97;4973836;28;102675;-58
2023/03/04 07:01:19;;;;;;;30.43;18.23;;;;;;;0.68;82.01;99347.09;4972493;28;103247;-58
2023/03/04 07:03:51;;;;;;;29.60;17.30;;;;;;;0.69;83.23;99346.22;4979344;28;103104;-58
2023/03/04 07:06:21;;;;;;;31.40;18.47;;;;;;;0.91;83.27;99353.50;4973072;28;103456;-58
2023/03/04 07:08:50;;;;;;;31.47;18.87;;;;;;;0.85;83.49;99348.44;4973640;28;102639;-58
2023/03/04 07:11:22;;;;;;;27.77;15.97;;;;;;;1.15;82.43;99341.69;4972493;28;103008;-59
2023/03/04 07:13:52;;;;;;;32.30;19.53;;;;;;;1.14;82.34;99351.22;4972466;28;103521;-58
2023/03/04 07:16:23;;;;;;;33.27;19.90;;;;;;;0.71;83.84;99354.84;4965698;28;102726;-58
2023/03/04 07:18:52;;;;;;;37.03;19.83;;;;;;;0.62;85.34;99355.06;4973616;28;104142;-58
2023/03/04 07:21:21;;;;;;;32.43;19.83;;;;;;;0.64;85.33;99358.50;4974043;28;103265;-58
2023/03/04 07:23:51;;;;;;;34.47;19.17;;;;;;;0.83;85.81;99370.19;4974610;28;103075;-59
2023/03/04 07:26:19;;;;;;;33.40;19.57;;;;;;;0.72;86.25;99372.16;4974177;28;102718;-58
2023/03/04 07:28:51;;;;;;;27.87;16.07;;;;;;;1.14;85.94;99363.38;4976719;28;102946;-58
2023/03/04 07:31:26;;;;;;;34.07;20.50;;;;;;;0.87;85.26;99362.25;4976646;28;103148;-58
2023/03/04 07:33:59;;;;;;;33.13;18.43;;;;;;;0.87;85.76;99366.63;4973378;28;103407;-58
2023/03/04 07:36:28;;;;;;;27.23;16.13;;;;;;;1.27;86.06;99361.31;4974807;28;103266;-58
2023/03/04 07:38:56;;;;;;;31.97;17.77;;;;;;;0.58;87.91;99380.28;4968609;28;104180;-58
2023/03/04 07:41:27;;;;;;;30.40;17.20;;;;;;;0.80;87.21;99370.25;4972612;28;103444;-58
2023/03/04 07:43:58;;;;;;;30.57;18.37;;;;;;;0.75;87.97;99385.13;4976835;28;103191;-58
2023/03/04 07:46:30;;;;;;;32.50;19.20;;;;;;;0.98;87.87;99380.25;4976233;28;102708;-58
2023/03/04 07:49:01;;;;;;;30.10;15.63;;;;;;;1.26;86.51;99377.84;4975484;28;102729;-58
2023/03/04 07:51:29;;;;;;;28.27;16.70;;;;;;;1.25;85.09;99382.19;4974104;28;104312;-58
2023/03/04 07:53:59;;;;;;;26.20;16.80;;;;;;;1.19;85.57;99390.16;4989035;28;103318;-58
2023/03/04 07:56:29;;;;;;;26.73;16.50;;;;;;;1.09;85.96;99388.66;4970421;28;102745;-58
2023/03/04 07:58:57;;;;;;;29.13;16.83;;;;;;;1.00;85.90;99384.53;4971762;28;102808;-58
2023/03/04 08:01:28;;;;;;;28.03;17.63;;;;;;;1.05;86.71;99387.00;4974738;28;103411;-59
2023/03/04 08:03:56;;;;;;;26.03;15.30;;;;;;;1.18;86.98;99383.22;4972182;28;103332;-58
2023/03/04 08:06:27;;;;;;;27.77;17.33;;;;;;;1.33;86.02;99387.22;4969559;28;102703;-58
2023/03/04 08:08:58;;;;;;;27.17;16.23;;;;;;;1.20;85.39;99388.41;4973546;28;104446;-58
2023/03/04 08:11:27;;;;;;;30.73;17.87;;;;;;;1.47;84.77;99391.19;4968618;28;104042;-58
2023/03/04 08:13:55;;;;;;;29.90;17.13;;;;;;;1.38;85.34;99390.56;4971803;28;103739;-58
2023/03/04 08:16:25;;;;;;;29.93;18.07;;;;;;;1.60;84.29;99402.16;4972271;28;103145;-60
2023/03/04 08:18:55;;;;;;;32.60;19.73;;;;;;;1.39;84.07;99393.13;4967218;28;104567;-59
2023/03/04 08:21:26;;;;;;;31.10;18.47;;;;;;;1.18;85.88;99404.91;4971098;28;103487;-59
2023/03/04 08:23:57;;;;;;;29.43;17.43;;;;;;;1.52;85.36;99399.75;4976062;28;103487;-59
2023/03/04 08:26:27;;;;;;;30.37;18.77;;;;;;;1.01;86.50;99407.03;4976901;28;102671;-58
2023/03/04 08:28:56;;;;;;;31.13;19.40;;;;;;;1.01;85.77;99403.59;4974882;28;102846;-58
2023/03/04 08:31:25;;;;;;;30.70;18.40;;;;;;;1.03;86.71;99401.81;4956274;28;103017;-59
2023/03/04 08:33:55;;;;;;;31.00;19.03;;;;;;;0.91;87.61;99404.69;4948044;28;104270;-59
2023/03/04 08:36:24;;;;;;;30.77;18.33;;;;;;;0.69;88.55;99411.25;4960979;28;102912;-59
2023/03/04 08:38:53;;;;;;;30.73;19.20;;;;;;;1.01;88.17;99411.41;4966758;28;103021;-59
2023/03/04 08:41:24;;;;;;;30.13;18.23;;;;;;;1.39;86.96;99411.34;4966354;28;103246;-59
2023/03/04 08:43:52;;;;;;;31.77;18.33;;;;;;;1.51;86.28;99411.06;4964759;28;103218;-59
2023/03/04 08:46:21;;;;;;;32.50;19.87;;;;;;;1.34;85.70;99415.84;4964061;28;103350;-58
2023/03/04 08:48:50;;;;;;;30.40;18.27;;;;;;;1.28;86.69;99410.75;4965244;28;104654;-59
2023/03/04 08:51:20;;;;;;;28.00;17.00;;;;;;;1.81;85.65;99408.56;4958614;28;103212;-59
2023/03/04 08:53:48;;;;;;;29.13;18.17;;;;;;;1.84;83.85;99396.31;4960327;28;104252;-59
2023/03/04 08:56:19;;;;;;;31.17;17.33;;;;;;;2.15;83.90;99404.16;4958080;28;102974;-59
2023/03/04 08:58:47;;;;;;;32.00;18.10;;;;;;;2.09;82.23;99397.38;4961112;28;102737;-59
2023/03/04 09:01:16;;;;;;;32.67;18.37;;;;;;;2.03;82.71;99396.66;4965023;28;103264;-58
2023/03/04 09:03:44;;;;;;;25.53;15.07;;;;;;;2.29;82.82;99410.72;4960683;28;103244;-59
2023/03/04 09:06:15;;;;;;;29.57;17.73;;;;;;;2.30;83.39;99406.38;4958063;28;102827;-59
2023/03/04 09:08:43;;;;;;;31.30;17.47;;;;;;;2.49;82.06;99410.16;4964568;28;102798;-59
2023/03/04 09:11:11;;;;;;;27.73;17.90;;;;;;;2.20;81.18;99415.31;4955926;28;103275;-58
2023/03/04 09:13:41;;;;;;;26.73;16.33;;;;;;;2.64;81.42;99412.31;4963181;28;102996;-59
2023/03/04 09:16:10;;;;;;;29.53;17.80;;;;;;;2.65;80.25;99405.34;4965657;28;102994;-59
2023/03/04 09:18:38;;;;;;;25.70;16.27;;;;;;;2.63;80.14;99415.84;4957503;28;102844;-59
2023/03/04 09:21:08;;;;;;;28.90;17.97;;;;;;;2.81;79.82;99420.50;4959440;28;103247;-59
2023/03/04 09:23:36;;;;;;;24.07;14.63;;;;;;;2.96;79.59;99411.34;4966316;28;104185;-59
2023/03/04 09:26:14;;;;;;;25.23;16.10;;;;;;;2.31;79.49;99421.09;4960427;28;103003;-59
2023/03/04 09:28:43;;;;;;;23.17;14.93;;;;;;;2.52;80.39;99412.69;4966556;28;102986;-59
2023/03/04 09:31:14;;;;;;;29.13;18.23;;;;;;;2.76;78.81;99408.47;4970167;28;103752;-58
2023/03/04 09:33:42;;;;;;;25.33;15.83;;;;;;;2.60;81.01;99413.31;4968009;28;103234;-59
2023/03/04 09:36:11;;;;;;;25.17;14.80;;;;;;;2.88;79.37;99402.91;4968384;28;103053;-59
2023/03/04 09:38:40;;;;;;;25.73;16.73;;;;;;;2.79;78.39;99401.44;4969533;28;103172;-59
2023/03/04 09:41:12;;;;;;;26.73;16.47;;;;;;;3.23;78.17;99401.81;4968583;28;103287;-58
2023/03/04 09:43:41;;;;;;;22.33;15.40;;;;;;;3.36;76.58;99401.38;4969528;28;103319;-58
2023/03/04 09:46:15;;;;;;;23.00;15.57;;;;;;;3.14;76.28;99407.34;4967377;28;102896;-59
2023/03/04 09:48:46;;;;;;;23.30;14.97;;;;;;;3.28;76.09;99405.16;4966680;28;102932;-59
2023/03/04 09:51:22;;;;;;;24.97;15.73;;;;;;;3.47;76.17;99401.03;4967179;28;103389;-59
2023/03/04 09:54:08;;;;;;;24.03;15.00;;;;;;;3.80;73.59;99399.91;4966182;28;103203;-59
2023/03/04 09:56:39;;;;;;;23.47;15.73;;;;;;;4.07;73.86;99404.16;4966717;28;102734;-59
2023/03/04 09:59:17;;;;;;;23.40;15.13;;;;;;;3.86;74.40;99406.69;4961367;28;102808;-59
2023/03/04 10:01:51;;;;;;;24.83;15.37;;;;;;;3.77;74.47;99407.84;4977698;28;103138;-59
2023/03/04 10:04:31;;;;;;;24.77;15.90;;;;;;;3.32;74.15;99406.72;4973843;28;103939;-59
2023/03/04 10:07:00;;;;;;;22.93;15.63;;;;;;;3.77;74.05;99406.97;4963595;28;102704;-59
2023/03/04 10:09:33;;;;;;;23.90;15.87;;;;;;;3.67;72.68;99406.47;4967352;28;102927;-59
2023/03/04 10:12:04;;;;;;;27.27;15.70;;;;;;;3.93;71.44;99395.94;4957528;28;103743;-59
2023/03/04 10:14:38;;;;;;;23.80;16.50;;;;;;;3.98;73.17;99399.28;4963588;28;103167;-59
2023/03/04 10:17:14;;;;;;;22.47;15.40;;;;;;;4.14;71.85;99393.50;4956316;28;103190;-59
2023/03/04 10:19:51;;;;;;;20.63;15.00;;;;;;;4.20;69.96;99388.06;4965709;28;102776;-59
2023/03/04 10:22:28;;;;;;;23.03;15.60;;;;;;;4.33;71.17;99398.00;4966319;28;104032;-59
2023/03/04 10:24:58;;;;;;;23.70;17.07;;;;;;;3.72;70.27;99394.09;4940636;28;103229;-60
2023/03/04 10:27:29;;;;;;;25.17;15.77;;;;;;;4.00;71.17;99388.75;4963343;28;102780;-59
2023/03/04 10:29:59;;;;;;;25.43;17.97;;;;;;;4.10;69.88;99392.75;4965464;28;102728;-59
2023/03/04 10:32:28;;;;;;;25.70;17.40;;;;;;;4.19;69.41;99397.66;4979465;28;105495;-59
2023/03/04 10:34:57;;;;;;;27.80;17.30;;;;;;;4.41;69.43;99382.88;4969940;28;103230;-60
2023/03/04 10:37:45;;;;;;;28.40;17.63;;;;;;;4.60;69.26;99385.69;4971722;28;102755;-59
2023/03/04 10:40:21;;;;;;;22.80;17.23;;;;;;;4.52;68.56;99382.53;4982072;28;104144;-59
2023/03/04 10:42:50;;;;;;;26.70;18.47;;;;;;;4.32;68.85;99378.00;4964256;28;103253;-60
2023/03/04 10:45:25;;;;;;;26.10;18.07;;;;;;;4.03;69.79;99384.28;4971634;28;103334;-59
2023/03/04 10:47:57;;;;;;;25.90;16.87;;;;;;;3.70;71.02;99380.22;4976415;28;103286;-59
2023/03/04 10:50:28;;;;;;;24.33;15.63;;;;;;;4.24;71.47;99385.25;4970314;28;104229;-59
2023/03/04 10:52:57;;;;;;;28.17;18.90;;;;;;;4.11;68.94;99384.00;4972425;28;103251;-59
2023/03/04 10:55:28;;;;;;;27.07;18.37;;;;;;;4.53;68.79;99376.34;4971404;28;103207;-59
2023/03/04 10:58:02;;;;;;;30.27;18.03;;;;;;;4.40;68.09;99369.88;4973815;28;103069;-59
2023/03/04 11:00:32;;;;;;;28.77;18.37;;;;;;;4.17;67.68;99362.00;4975670;28;102737;-59
2023/03/04 11:03:24;;;;;;;27.67;18.60;;;;;;;4.56;67.89;99365.78;4974133;28;104097;-59
2023/03/04 11:06:16;;;;;;;30.60;20.03;;;;;;;4.30;67.96;99363.25;4974894;28;103209;-59
2023/03/04 11:08:46;;;;;;;30.23;20.67;;;;;;;3.70;69.40;99354.09;4977615;28;102659;-59
2023/03/04 11:11:28;;;;;;;27.20;19.53;;;;;;;3.94;70.31;99361.06;4976544;28;103744;-59
2023/03/04 11:14:01;;;;;;;26.80;18.43;;;;;;;4.17;69.07;99362.00;4972692;28;103190;-59
2023/03/04 11:16:33;;;;;;;28.07;18.87;;;;;;;3.83;70.09;99352.75;4989467;28;103809;-59
2023/03/04 11:19:12;;;;;;;31.07;20.30;;;;;;;4.20;69.45;99356.66;4974141;28;102719;-59
2023/03/04 11:21:41;;;;;;;27.57;18.67;;;;;;;3.63;70.46;99354.31;4973403;28;103871;-59
2023/03/04 11:24:14;;;;;;;30.93;20.23;;;;;;;3.89;70.56;99347.31;4977331;28;103335;-59
2023/03/04 11:27:03;;;;;;;28.53;19.47;;;;;;;3.96;69.56;99354.00;4976084;28;104709;-59
2023/03/04 11:29:38;;;;;;;29.37;19.87;;;;;;;3.78;70.20;99354.66;4977661;28;102593;-59